sensor_id;sensor_type;location;lat;lon;timestamp;temperature;humidity
67942;SHT31;54731;42.600;23.476;2023-06-04T00:01:33;15.87;84.80
67942;SHT31;54731;42.600;23.476;2023-06-04T00:03:58;15.83;84.90
67942;SHT31;54731;42.600;23.476;2023-06-04T00:06:23;15.83;84.72
67942;SHT31;54731;42.600;23.476;2023-06-04T00:08:48;15.80;84.87
67942;SHT31;54731;42.600;23.476;2023-06-04T00:11:14;15.80;84.88
67942;SHT31;54731;42.600;23.476;2023-06-04T00:13:39;15.79;84.85
67942;SHT31;54731;42.600;23.476;2023-06-04T00:16:04;15.80;84.73
67942;SHT31;54731;42.600;23.476;2023-06-04T00:18:30;15.73;84.73
67942;SHT31;54731;42.600;23.476;2023-06-04T00:20:55;15.66;84.93
67942;SHT31;54731;42.600;23.476;2023-06-04T00:23:20;15.64;85.02
67942;SHT31;54731;42.600;23.476;2023-06-04T00:25:46;15.60;84.93
67942;SHT31;54731;42.600;23.476;2023-06-04T00:28:11;15.51;85.26
67942;SHT31;54731;42.600;23.476;2023-06-04T00:30:36;15.56;85.39
67942;SHT31;54731;42.600;23.476;2023-06-04T00:33:01;15.54;85.48
67942;SHT31;54731;42.600;23.476;2023-06-04T00:35:27;15.43;86.00
67942;SHT31;54731;42.600;23.476;2023-06-04T00:37:52;15.43;86.04
67942;SHT31;54731;42.600;23.476;2023-06-04T00:40:17;15.51;86.01
67942;SHT31;54731;42.600;23.476;2023-06-04T00:42:44;15.56;86.11
67942;SHT31;54731;42.600;23.476;2023-06-04T00:45:09;15.61;85.97
67942;SHT31;54731;42.600;23.476;2023-06-04T00:47:35;15.67;85.81
67942;SHT31;54731;42.600;23.476;2023-06-04T00:50:01;15.71;85.73
67942;SHT31;54731;42.600;23.476;2023-06-04T00:52:26;15.77;85.58
67942;SHT31;54731;42.600;23.476;2023-06-04T00:54:52;15.73;85.63
67942;SHT31;54731;42.600;23.476;2023-06-04T00:57:17;15.76;85.71
67942;SHT31;54731;42.600;23.476;2023-06-04T00:59:43;15.71;85.01
67942;SHT31;54731;42.600;23.476;2023-06-04T01:02:13;15.71;84.69
67942;SHT31;54731;42.600;23.476;2023-06-04T01:05:39;15.69;84.08
67942;SHT31;54731;42.600;23.476;2023-06-04T01:07:38;15.67;83.72
67942;SHT31;54731;42.600;23.476;2023-06-04T01:10:05;15.67;83.56
67942;SHT31;54731;42.600;23.476;2023-06-04T01:12:30;15.67;83.50
67942;SHT31;54731;42.600;23.476;2023-06-04T01:14:55;15.64;83.53
67942;SHT31;54731;42.600;23.476;2023-06-04T01:17:54;15.66;83.32
67942;SHT31;54731;42.600;23.476;2023-06-04T01:20:34;15.60;82.94
67942;SHT31;54731;42.600;23.476;2023-06-04T01:25:40;15.63;83.05
67942;SHT31;54731;42.600;23.476;2023-06-04T01:28:07;15.60;83.21
67942;SHT31;54731;42.600;23.476;2023-06-04T01:30:35;15.57;83.03
67942;SHT31;54731;42.600;23.476;2023-06-04T01:33:02;15.57;83.15
67942;SHT31;54731;42.600;23.476;2023-06-04T01:35:29;15.43;83.38
67942;SHT31;54731;42.600;23.476;2023-06-04T01:37:55;15.42;83.89
67942;SHT31;54731;42.600;23.476;2023-06-04T01:40:21;15.44;83.89
67942;SHT31;54731;42.600;23.476;2023-06-04T01:42:46;15.46;83.91
67942;SHT31;54731;42.600;23.476;2023-06-04T01:45:11;15.47;83.87
67942;SHT31;54731;42.600;23.476;2023-06-04T01:47:37;15.47;83.92
67942;SHT31;54731;42.600;23.476;2023-06-04T01:50:04;15.46;84.05
67942;SHT31;54731;42.600;23.476;2023-06-04T01:52:29;15.44;84.26
67942;SHT31;54731;42.600;23.476;2023-06-04T01:54:55;15.44;84.48
67942;SHT31;54731;42.600;23.476;2023-06-04T01:57:23;15.44;84.75
67942;SHT31;54731;42.600;23.476;2023-06-04T01:59:49;15.42;84.97
67942;SHT31;54731;42.600;23.476;2023-06-04T02:02:14;15.46;85.01
67942;SHT31;54731;42.600;23.476;2023-06-04T02:04:40;15.47;84.88
67942;SHT31;54731;42.600;23.476;2023-06-04T02:07:05;15.46;85.03
67942;SHT31;54731;42.600;23.476;2023-06-04T02:09:30;15.37;85.10
67942;SHT31;54731;42.600;23.476;2023-06-04T02:11:56;15.37;85.36
67942;SHT31;54731;42.600;23.476;2023-06-04T02:14:21;15.37;85.19
67942;SHT31;54731;42.600;23.476;2023-06-04T02:16:46;15.33;85.22
67942;SHT31;54731;42.600;23.476;2023-06-04T02:19:12;15.35;85.23
67942;SHT31;54731;42.600;23.476;2023-06-04T02:21:37;15.40;85.03
67942;SHT31;54731;42.600;23.476;2023-06-04T02:24:02;15.44;84.72
67942;SHT31;54731;42.600;23.476;2023-06-04T02:26:27;15.42;83.47
67942;SHT31;54731;42.600;23.476;2023-06-04T02:28:53;15.35;82.40
67942;SHT31;54731;42.600;23.476;2023-06-04T02:31:18;15.35;82.83
67942;SHT31;54731;42.600;23.476;2023-06-04T02:33:43;15.29;83.28
67942;SHT31;54731;42.600;23.476;2023-06-04T02:36:09;15.29;83.47
67942;SHT31;54731;42.600;23.476;2023-06-04T02:38:34;15.30;83.62
67942;SHT31;54731;42.600;23.476;2023-06-04T02:40:59;15.29;83.52
67942;SHT31;54731;42.600;23.476;2023-06-04T02:43:25;15.29;83.56
67942;SHT31;54731;42.600;23.476;2023-06-04T02:45:50;15.33;83.55
67942;SHT31;54731;42.600;23.476;2023-06-04T02:48:15;15.32;83.56
67942;SHT31;54731;42.600;23.476;2023-06-04T02:50:41;15.32;83.69
67942;SHT31;54731;42.600;23.476;2023-06-04T02:53:07;15.29;83.45
67942;SHT31;54731;42.600;23.476;2023-06-04T02:55:32;15.25;83.03
67942;SHT31;54731;42.600;23.476;2023-06-04T02:57:57;15.33;82.79
67942;SHT31;54731;42.600;23.476;2023-06-04T03:00:22;15.29;82.70
67942;SHT31;54731;42.600;23.476;2023-06-04T03:02:48;15.25;82.98
67942;SHT31;54731;42.600;23.476;2023-06-04T03:05:15;15.25;83.58
67942;SHT31;54731;42.600;23.476;2023-06-04T03:07:41;15.20;83.76
67942;SHT31;54731;42.600;23.476;2023-06-04T03:10:08;15.16;83.97
67942;SHT31;54731;42.600;23.476;2023-06-04T03:12:33;15.18;83.83
67942;SHT31;54731;42.600;23.476;2023-06-04T03:14:59;15.19;83.96
67942;SHT31;54731;42.600;23.476;2023-06-04T03:17:25;15.23;84.07
67942;SHT31;54731;42.600;23.476;2023-06-04T03:19:51;15.22;84.00
67942;SHT31;54731;42.600;23.476;2023-06-04T03:22:16;15.09;84.14
67942;SHT31;54731;42.600;23.476;2023-06-04T03:24:41;15.05;84.51
67942;SHT31;54731;42.600;23.476;2023-06-04T03:27:08;15.05;84.62
67942;SHT31;54731;42.600;23.476;2023-06-04T03:29:34;15.05;84.30
67942;SHT31;54731;42.600;23.476;2023-06-04T03:32:01;15.06;84.12
67942;SHT31;54731;42.600;23.476;2023-06-04T03:34:26;15.07;84.32
67942;SHT31;54731;42.600;23.476;2023-06-04T03:36:53;15.07;84.41
67942;SHT31;54731;42.600;23.476;2023-06-04T03:39:18;15.07;84.47
67942;SHT31;54731;42.600;23.476;2023-06-04T03:41:44;15.07;84.34
67942;SHT31;54731;42.600;23.476;2023-06-04T03:44:09;15.06;84.43
67942;SHT31;54731;42.600;23.476;2023-06-04T03:46:34;15.06;84.27
67942;SHT31;54731;42.600;23.476;2023-06-04T03:49:00;15.02;84.22
67942;SHT31;54731;42.600;23.476;2023-06-04T03:51:25;15.06;84.21
67942;SHT31;54731;42.600;23.476;2023-06-04T03:53:50;15.06;84.26
67942;SHT31;54731;42.600;23.476;2023-06-04T03:56:16;15.09;84.40
67942;SHT31;54731;42.600;23.476;2023-06-04T03:58:41;15.10;84.39
67942;SHT31;54731;42.600;23.476;2023-06-04T04:01:06;15.12;84.44
67942;SHT31;54731;42.600;23.476;2023-06-04T04:03:33;15.12;84.37
67942;SHT31;54731;42.600;23.476;2023-06-04T04:05:58;15.10;84.40
67942;SHT31;54731;42.600;23.476;2023-06-04T04:08:24;15.09;84.42
67942;SHT31;54731;42.600;23.476;2023-06-04T04:10:49;15.12;84.36
67942;SHT31;54731;42.600;23.476;2023-06-04T04:13:14;15.07;84.68
67942;SHT31;54731;42.600;23.476;2023-06-04T04:15:40;14.96;84.97
67942;SHT31;54731;42.600;23.476;2023-06-04T04:18:05;14.93;85.26
67942;SHT31;54731;42.600;23.476;2023-06-04T04:20:30;14.99;85.22
67942;SHT31;54731;42.600;23.476;2023-06-04T04:22:56;15.06;85.10
67942;SHT31;54731;42.600;23.476;2023-06-04T04:25:21;15.10;84.85
67942;SHT31;54731;42.600;23.476;2023-06-04T04:27:46;15.12;85.00
67942;SHT31;54731;42.600;23.476;2023-06-04T04:30:12;15.16;85.00
67942;SHT31;54731;42.600;23.476;2023-06-04T04:32:37;15.20;84.98
67942;SHT31;54731;42.600;23.476;2023-06-04T04:35:02;15.27;84.76
67942;SHT31;54731;42.600;23.476;2023-06-04T04:37:28;15.29;84.61
67942;SHT31;54731;42.600;23.476;2023-06-04T04:39:54;15.26;84.15
67942;SHT31;54731;42.600;23.476;2023-06-04T04:42:20;15.20;84.19
67942;SHT31;54731;42.600;23.476;2023-06-04T04:44:45;15.26;84.31
67942;SHT31;54731;42.600;23.476;2023-06-04T04:47:10;15.36;84.21
67942;SHT31;54731;42.600;23.476;2023-06-04T04:49:36;15.42;83.97
67942;SHT31;54731;42.600;23.476;2023-06-04T04:52:01;15.37;83.33
67942;SHT31;54731;42.600;23.476;2023-06-04T04:54:26;15.33;83.45
67942;SHT31;54731;42.600;23.476;2023-06-04T04:56:51;15.30;83.19
67942;SHT31;54731;42.600;23.476;2023-06-04T04:59:17;15.33;83.13
67942;SHT31;54731;42.600;23.476;2023-06-04T05:01:42;15.36;83.05
67942;SHT31;54731;42.600;23.476;2023-06-04T05:04:07;15.37;82.80
67942;SHT31;54731;42.600;23.476;2023-06-04T05:06:32;15.33;82.37
67942;SHT31;54731;42.600;23.476;2023-06-04T05:08:58;15.43;82.59
67942;SHT31;54731;42.600;23.476;2023-06-04T05:11:23;15.54;82.40
67942;SHT31;54731;42.600;23.476;2023-06-04T05:13:48;15.61;81.98
67942;SHT31;54731;42.600;23.476;2023-06-04T05:16:14;15.73;81.90
67942;SHT31;54731;42.600;23.476;2023-06-04T05:18:39;15.81;81.77
67942;SHT31;54731;42.600;23.476;2023-06-04T05:21:05;15.90;81.09
67942;SHT31;54731;42.600;23.476;2023-06-04T05:23:30;16.01;80.93
67942;SHT31;54731;42.600;23.476;2023-06-04T05:25:56;16.10;80.96
67942;SHT31;54731;42.600;23.476;2023-06-04T05:28:21;16.18;81.06
67942;SHT31;54731;42.600;23.476;2023-06-04T05:30:47;16.20;80.74
67942;SHT31;54731;42.600;23.476;2023-06-04T05:33:12;16.20;80.67
67942;SHT31;54731;42.600;23.476;2023-06-04T05:35:37;16.17;80.55
67942;SHT31;54731;42.600;23.476;2023-06-04T05:38:03;16.22;80.51
67942;SHT31;54731;42.600;23.476;2023-06-04T05:40:28;16.34;80.01
67942;SHT31;54731;42.600;23.476;2023-06-04T05:42:53;16.38;79.91
67942;SHT31;54731;42.600;23.476;2023-06-04T05:45:18;16.42;80.37
67942;SHT31;54731;42.600;23.476;2023-06-04T05:47:44;16.44;80.24
67942;SHT31;54731;42.600;23.476;2023-06-04T05:50:09;16.45;80.04
67942;SHT31;54731;42.600;23.476;2023-06-04T05:52:35;16.48;80.09
67942;SHT31;54731;42.600;23.476;2023-06-04T05:55:00;16.48;80.21
67942;SHT31;54731;42.600;23.476;2023-06-04T05:57:25;16.47;80.44
67942;SHT31;54731;42.600;23.476;2023-06-04T05:59:51;16.51;80.24
67942;SHT31;54731;42.600;23.476;2023-06-04T06:02:16;16.59;79.82
67942;SHT31;54731;42.600;23.476;2023-06-04T06:04:41;16.69;79.59
67942;SHT31;54731;42.600;23.476;2023-06-04T06:07:07;16.71;78.73
67942;SHT31;54731;42.600;23.476;2023-06-04T06:09:32;16.72;78.66
67942;SHT31;54731;42.600;23.476;2023-06-04T06:11:58;16.73;79.22
67942;SHT31;54731;42.600;23.476;2023-06-04T06:14:23;16.73;79.49
67942;SHT31;54731;42.600;23.476;2023-06-04T06:16:48;16.75;79.22
67942;SHT31;54731;42.600;23.476;2023-06-04T06:19:14;16.79;78.73
67942;SHT31;54731;42.600;23.476;2023-06-04T06:21:39;16.79;78.94
67942;SHT31;54731;42.600;23.476;2023-06-04T06:24:04;16.77;78.95
67942;SHT31;54731;42.600;23.476;2023-06-04T06:26:30;16.83;78.84
67942;SHT31;54731;42.600;23.476;2023-06-04T06:28:55;16.83;79.24
67942;SHT31;54731;42.600;23.476;2023-06-04T06:31:20;16.85;79.31
67942;SHT31;54731;42.600;23.476;2023-06-04T06:33:45;16.85;78.97
67942;SHT31;54731;42.600;23.476;2023-06-04T06:36:11;16.75;79.64
67942;SHT31;54731;42.600;23.476;2023-06-04T06:38:36;16.76;78.95
67942;SHT31;54731;42.600;23.476;2023-06-04T06:41:02;16.73;78.94
67942;SHT31;54731;42.600;23.476;2023-06-04T06:43:27;16.76;78.91
67942;SHT31;54731;42.600;23.476;2023-06-04T06:45:52;16.80;78.78
67942;SHT31;54731;42.600;23.476;2023-06-04T06:48:18;16.87;78.49
67942;SHT31;54731;42.600;23.476;2023-06-04T06:50:43;16.87;78.32
67942;SHT31;54731;42.600;23.476;2023-06-04T06:53:08;16.93;78.33
67942;SHT31;54731;42.600;23.476;2023-06-04T06:55:34;17.00;78.78
67942;SHT31;54731;42.600;23.476;2023-06-04T06:57:59;17.00;79.10
67942;SHT31;54731;42.600;23.476;2023-06-04T07:00:26;17.05;78.93
67942;SHT31;54731;42.600;23.476;2023-06-04T07:02:51;17.06;78.72
67942;SHT31;54731;42.600;23.476;2023-06-04T07:05:17;17.10;78.20
67942;SHT31;54731;42.600;23.476;2023-06-04T07:07:42;17.20;78.11
67942;SHT31;54731;42.600;23.476;2023-06-04T07:10:08;17.30;77.93
67942;SHT31;54731;42.600;23.476;2023-06-04T07:12:34;17.44;77.45
67942;SHT31;54731;42.600;23.476;2023-06-04T07:14:59;17.53;77.52
67942;SHT31;54731;42.600;23.476;2023-06-04T07:17:24;17.54;77.58
67942;SHT31;54731;42.600;23.476;2023-06-04T07:19:49;17.60;77.32
67942;SHT31;54731;42.600;23.476;2023-06-04T07:22:15;17.64;77.10
67942;SHT31;54731;42.600;23.476;2023-06-04T07:24:40;17.77;76.73
67942;SHT31;54731;42.600;23.476;2023-06-04T07:27:15;17.91;76.22
67942;SHT31;54731;42.600;23.476;2023-06-04T07:29:43;17.97;76.46
67942;SHT31;54731;42.600;23.476;2023-06-04T07:32:08;18.01;76.11
67942;SHT31;54731;42.600;23.476;2023-06-04T07:34:33;18.08;75.40
67942;SHT31;54731;42.600;23.476;2023-06-04T07:36:59;17.97;74.61
67942;SHT31;54731;42.600;23.476;2023-06-04T07:39:24;18.06;75.12
67942;SHT31;54731;42.600;23.476;2023-06-04T07:41:50;18.16;75.29
67942;SHT31;54731;42.600;23.476;2023-06-04T07:44:15;18.25;74.58
67942;SHT31;54731;42.600;23.476;2023-06-04T07:46:41;18.39;74.47
67942;SHT31;54731;42.600;23.476;2023-06-04T07:49:06;18.45;74.57
67942;SHT31;54731;42.600;23.476;2023-06-04T07:51:31;18.52;74.49
67942;SHT31;54731;42.600;23.476;2023-06-04T07:53:57;18.45;74.67
67942;SHT31;54731;42.600;23.476;2023-06-04T07:56:22;18.51;74.44
67942;SHT31;54731;42.600;23.476;2023-06-04T07:58:48;18.66;74.41
67942;SHT31;54731;42.600;23.476;2023-06-04T08:01:13;18.74;73.95
67942;SHT31;54731;42.600;23.476;2023-06-04T08:03:39;18.73;73.68
67942;SHT31;54731;42.600;23.476;2023-06-04T08:06:04;18.94;73.84
67942;SHT31;54731;42.600;23.476;2023-06-04T08:08:29;19.03;72.90
67942;SHT31;54731;42.600;23.476;2023-06-04T08:10:55;19.03;72.45
67942;SHT31;54731;42.600;23.476;2023-06-04T08:13:20;19.03;72.28
67942;SHT31;54731;42.600;23.476;2023-06-04T08:15:45;19.06;70.86
67942;SHT31;54731;42.600;23.476;2023-06-04T08:18:11;18.99;70.25
67942;SHT31;54731;42.600;23.476;2023-06-04T08:20:36;18.97;69.65
67942;SHT31;54731;42.600;23.476;2023-06-04T08:23:01;18.99;69.22
67942;SHT31;54731;42.600;23.476;2023-06-04T08:25:27;18.90;68.75
67942;SHT31;54731;42.600;23.476;2023-06-04T08:27:52;18.92;69.45
67942;SHT31;54731;42.600;23.476;2023-06-04T08:30:17;18.97;68.73
67942;SHT31;54731;42.600;23.476;2023-06-04T08:32:42;18.83;68.30
67942;SHT31;54731;42.600;23.476;2023-06-04T08:35:08;18.82;68.79
67942;SHT31;54731;42.600;23.476;2023-06-04T08:37:34;18.77;68.98
67942;SHT31;54731;42.600;23.476;2023-06-04T08:39:59;18.67;69.33
67942;SHT31;54731;42.600;23.476;2023-06-04T08:42:31;18.76;69.92
67942;SHT31;54731;42.600;23.476;2023-06-04T08:45:02;18.72;69.32
67942;SHT31;54731;42.600;23.476;2023-06-04T08:47:28;18.89;68.82
67942;SHT31;54731;42.600;23.476;2023-06-04T08:49:59;18.87;68.74
67942;SHT31;54731;42.600;23.476;2023-06-04T08:52:25;18.79;70.08
67942;SHT31;54731;42.600;23.476;2023-06-04T08:54:53;18.84;69.66
67942;SHT31;54731;42.600;23.476;2023-06-04T08:57:19;18.99;68.44
67942;SHT31;54731;42.600;23.476;2023-06-04T08:59:47;18.93;68.74
67942;SHT31;54731;42.600;23.476;2023-06-04T09:02:14;18.86;67.96
67942;SHT31;54731;42.600;23.476;2023-06-04T09:04:40;18.83;68.85
67942;SHT31;54731;42.600;23.476;2023-06-04T09:07:06;18.82;69.39
67942;SHT31;54731;42.600;23.476;2023-06-04T09:09:37;18.86;68.88
67942;SHT31;54731;42.600;23.476;2023-06-04T09:12:03;18.87;68.34
67942;SHT31;54731;42.600;23.476;2023-06-04T09:14:30;18.94;68.12
67942;SHT31;54731;42.600;23.476;2023-06-04T09:16:56;19.03;68.72
67942;SHT31;54731;42.600;23.476;2023-06-04T09:19:22;19.14;69.43
67942;SHT31;54731;42.600;23.476;2023-06-04T09:24:20;19.14;68.76
67942;SHT31;54731;42.600;23.476;2023-06-04T09:26:45;19.27;68.43
67942;SHT31;54731;42.600;23.476;2023-06-04T09:29:10;19.34;68.86
67942;SHT31;54731;42.600;23.476;2023-06-04T09:31:36;19.51;67.59
67942;SHT31;54731;42.600;23.476;2023-06-04T09:34:01;19.72;67.91
67942;SHT31;54731;42.600;23.476;2023-06-04T09:36:30;19.96;66.18
67942;SHT31;54731;42.600;23.476;2023-06-04T09:38:55;20.22;65.86
67942;SHT31;54731;42.600;23.476;2023-06-04T09:41:20;20.34;64.69
67942;SHT31;54731;42.600;23.476;2023-06-04T09:43:46;20.57;65.28
67942;SHT31;54731;42.600;23.476;2023-06-04T09:46:16;20.67;64.42
67942;SHT31;54731;42.600;23.476;2023-06-04T09:48:42;20.91;64.63
67942;SHT31;54731;42.600;23.476;2023-06-04T09:51:09;21.10;62.33
67942;SHT31;54731;42.600;23.476;2023-06-04T09:53:34;21.24;62.06
67942;SHT31;54731;42.600;23.476;2023-06-04T09:56:01;21.37;63.48
67942;SHT31;54731;42.600;23.476;2023-06-04T09:58:27;21.61;62.90
67942;SHT31;54731;42.600;23.476;2023-06-04T10:00:58;21.72;60.87
67942;SHT31;54731;42.600;23.476;2023-06-04T10:03:31;21.71;60.49
67942;SHT31;54731;42.600;23.476;2023-06-04T10:05:58;21.95;60.75
67942;SHT31;54731;42.600;23.476;2023-06-04T10:08:26;22.24;61.67
67942;SHT31;54731;42.600;23.476;2023-06-04T10:10:56;22.40;60.02
67942;SHT31;54731;42.600;23.476;2023-06-04T10:13:23;22.13;59.36
67942;SHT31;54731;42.600;23.476;2023-06-04T10:15:49;22.00;59.91
67942;SHT31;54731;42.600;23.476;2023-06-04T10:18:15;22.00;60.20
67942;SHT31;54731;42.600;23.476;2023-06-04T10:20:41;22.02;58.61
67942;SHT31;54731;42.600;23.476;2023-06-04T10:23:07;22.16;59.28
67942;SHT31;54731;42.600;23.476;2023-06-04T10:25:36;22.22;57.84
67942;SHT31;54731;42.600;23.476;2023-06-04T10:28:02;22.20;59.16
67942;SHT31;54731;42.600;23.476;2023-06-04T10:30:29;22.37;58.30
67942;SHT31;54731;42.600;23.476;2023-06-04T10:32:56;22.41;58.87
67942;SHT31;54731;42.600;23.476;2023-06-04T10:35:32;22.32;58.14
67942;SHT31;54731;42.600;23.476;2023-06-04T10:38:11;22.39;59.41
67942;SHT31;54731;42.600;23.476;2023-06-04T10:40:37;22.68;58.04
67942;SHT31;54731;42.600;23.476;2023-06-04T10:43:09;23.05;57.30
67942;SHT31;54731;42.600;23.476;2023-06-04T10:45:35;23.08;57.94
67942;SHT31;54731;42.600;23.476;2023-06-04T10:48:02;22.98;56.85
67942;SHT31;54731;42.600;23.476;2023-06-04T10:50:28;22.88;57.38
67942;SHT31;54731;42.600;23.476;2023-06-04T10:52:54;23.11;56.48
67942;SHT31;54731;42.600;23.476;2023-06-04T10:55:20;23.51;56.53
67942;SHT31;54731;42.600;23.476;2023-06-04T10:57:55;23.59;55.62
67942;SHT31;54731;42.600;23.476;2023-06-04T11:00:22;23.63;54.72
67942;SHT31;54731;42.600;23.476;2023-06-04T11:02:56;23.89;54.56
67942;SHT31;54731;42.600;23.476;2023-06-04T11:05:22;24.19;53.80
67942;SHT31;54731;42.600;23.476;2023-06-04T11:07:49;24.17;54.06
67942;SHT31;54731;42.600;23.476;2023-06-04T11:10:16;24.40;53.77
67942;SHT31;54731;42.600;23.476;2023-06-04T11:12:48;24.31;52.69
67942;SHT31;54731;42.600;23.476;2023-06-04T11:15:14;24.44;53.13
67942;SHT31;54731;42.600;23.476;2023-06-04T11:17:53;24.56;54.18
67942;SHT31;54731;42.600;23.476;2023-06-04T11:20:20;24.60;54.48
67942;SHT31;54731;42.600;23.476;2023-06-04T11:22:54;24.82;53.20
67942;SHT31;54731;42.600;23.476;2023-06-04T11:25:20;25.26;53.48
67942;SHT31;54731;42.600;23.476;2023-06-04T11:27:45;25.46;51.66
67942;SHT31;54731;42.600;23.476;2023-06-04T11:30:11;25.53;50.59
67942;SHT31;54731;42.600;23.476;2023-06-04T11:32:36;25.47;52.00
67942;SHT31;54731;42.600;23.476;2023-06-04T11:35:05;25.16;50.69
67942;SHT31;54731;42.600;23.476;2023-06-04T11:37:31;25.02;51.83
67942;SHT31;54731;42.600;23.476;2023-06-04T11:39:56;25.07;51.94
67942;SHT31;54731;42.600;23.476;2023-06-04T11:42:23;25.14;52.38
67942;SHT31;54731;42.600;23.476;2023-06-04T11:44:48;25.14;51.39
67942;SHT31;54731;42.600;23.476;2023-06-04T11:47:14;25.34;51.02
67942;SHT31;54731;42.600;23.476;2023-06-04T11:49:40;25.32;51.57
67942;SHT31;54731;42.600;23.476;2023-06-04T11:52:05;25.36;50.68
67942;SHT31;54731;42.600;23.476;2023-06-04T11:54:32;25.35;51.70
67942;SHT31;54731;42.600;23.476;2023-06-04T11:56:57;25.19;52.75
67942;SHT31;54731;42.600;23.476;2023-06-04T11:59:23;24.81;51.62
67942;SHT31;54731;42.600;23.476;2023-06-04T12:01:48;24.91;52.32
67942;SHT31;54731;42.600;23.476;2023-06-04T12:06:53;25.36;53.16
67942;SHT31;54731;42.600;23.476;2023-06-04T12:09:29;25.45;52.96
67942;SHT31;54731;42.600;23.476;2023-06-04T12:12:04;25.76;51.75
67942;SHT31;54731;42.600;23.476;2023-06-04T12:14:29;25.76;50.05
67942;SHT31;54731;42.600;23.476;2023-06-04T12:17:00;25.77;50.97
67942;SHT31;54731;42.600;23.476;2023-06-04T12:19:26;26.01;49.98
67942;SHT31;54731;42.600;23.476;2023-06-04T12:22:05;25.89;48.72
67942;SHT31;54731;42.600;23.476;2023-06-04T12:24:45;25.79;48.75
67942;SHT31;54731;42.600;23.476;2023-06-04T12:27:10;25.92;49.27
67942;SHT31;54731;42.600;23.476;2023-06-04T12:29:36;25.94;49.06
67942;SHT31;54731;42.600;23.476;2023-06-04T12:32:05;25.76;49.27
67942;SHT31;54731;42.600;23.476;2023-06-04T12:34:31;25.97;49.46
67942;SHT31;54731;42.600;23.476;2023-06-04T12:36:57;26.27;48.93
67942;SHT31;54731;42.600;23.476;2023-06-04T12:39:22;26.21;49.13
67942;SHT31;54731;42.600;23.476;2023-06-04T12:41:48;26.48;48.44
67942;SHT31;54731;42.600;23.476;2023-06-04T12:44:13;26.33;48.46
67942;SHT31;54731;42.600;23.476;2023-06-04T12:46:38;26.45;49.54
67942;SHT31;54731;42.600;23.476;2023-06-04T12:49:04;26.43;47.54
67942;SHT31;54731;42.600;23.476;2023-06-04T12:51:29;26.80;47.54
67942;SHT31;54731;42.600;23.476;2023-06-04T12:53:54;26.57;47.61
67942;SHT31;54731;42.600;23.476;2023-06-04T12:56:20;26.18;49.95
67942;SHT31;54731;42.600;23.476;2023-06-04T12:58:45;26.33;48.77
67942;SHT31;54731;42.600;23.476;2023-06-04T13:01:10;26.20;48.18
67942;SHT31;54731;42.600;23.476;2023-06-04T13:03:36;26.28;48.95
67942;SHT31;54731;42.600;23.476;2023-06-04T13:06:02;26.24;49.48
67942;SHT31;54731;42.600;23.476;2023-06-04T13:08:27;26.08;48.65
67942;SHT31;54731;42.600;23.476;2023-06-04T13:10:53;26.01;49.56
67942;SHT31;54731;42.600;23.476;2023-06-04T13:13:19;26.00;49.29
67942;SHT31;54731;42.600;23.476;2023-06-04T13:15:45;25.77;49.91
67942;SHT31;54731;42.600;23.476;2023-06-04T13:18:11;25.45;50.23
67942;SHT31;54731;42.600;23.476;2023-06-04T13:20:37;25.46;50.95
67942;SHT31;54731;42.600;23.476;2023-06-04T13:23:02;25.52;50.85
67942;SHT31;54731;42.600;23.476;2023-06-04T13:25:28;25.50;50.77
67942;SHT31;54731;42.600;23.476;2023-06-04T13:27:53;25.72;50.81
67942;SHT31;54731;42.600;23.476;2023-06-04T13:30:18;25.53;51.41
67942;SHT31;54731;42.600;23.476;2023-06-04T13:32:43;25.75;50.86
67942;SHT31;54731;42.600;23.476;2023-06-04T13:35:09;25.83;50.14
67942;SHT31;54731;42.600;23.476;2023-06-04T13:37:34;25.98;50.18
67942;SHT31;54731;42.600;23.476;2023-06-04T13:39:59;26.04;49.74
67942;SHT31;54731;42.600;23.476;2023-06-04T13:42:25;25.92;49.55
67942;SHT31;54731;42.600;23.476;2023-06-04T13:44:50;25.82;49.80
67942;SHT31;54731;42.600;23.476;2023-06-04T13:47:15;25.89;49.76
67942;SHT31;54731;42.600;23.476;2023-06-04T13:49:41;25.86;49.32
67942;SHT31;54731;42.600;23.476;2023-06-04T13:52:06;25.92;50.29
67942;SHT31;54731;42.600;23.476;2023-06-04T13:54:31;25.79;49.24
67942;SHT31;54731;42.600;23.476;2023-06-04T13:56:56;25.61;49.76
67942;SHT31;54731;42.600;23.476;2023-06-04T13:59:22;25.77;50.55
67942;SHT31;54731;42.600;23.476;2023-06-04T14:01:47;25.67;49.67
67942;SHT31;54731;42.600;23.476;2023-06-04T14:04:12;25.63;48.99
67942;SHT31;54731;42.600;23.476;2023-06-04T14:06:38;25.77;49.38
67942;SHT31;54731;42.600;23.476;2023-06-04T14:09:04;25.59;50.14
67942;SHT31;54731;42.600;23.476;2023-06-04T14:11:29;25.62;49.75
67942;SHT31;54731;42.600;23.476;2023-06-04T14:13:55;25.76;49.30
67942;SHT31;54731;42.600;23.476;2023-06-04T14:16:20;25.70;49.96
67942;SHT31;54731;42.600;23.476;2023-06-04T14:18:45;25.66;49.75
67942;SHT31;54731;42.600;23.476;2023-06-04T14:21:11;25.43;49.81
67942;SHT31;54731;42.600;23.476;2023-06-04T14:23:36;25.24;50.91
67942;SHT31;54731;42.600;23.476;2023-06-04T14:26:01;25.01;50.77
67942;SHT31;54731;42.600;23.476;2023-06-04T14:28:27;24.80;51.67
67942;SHT31;54731;42.600;23.476;2023-06-04T14:30:52;24.65;51.98
67942;SHT31;54731;42.600;23.476;2023-06-04T14:33:17;24.56;52.24
67942;SHT31;54731;42.600;23.476;2023-06-04T14:35:43;24.30;53.26
67942;SHT31;54731;42.600;23.476;2023-06-04T14:38:08;24.24;53.46
67942;SHT31;54731;42.600;23.476;2023-06-04T14:40:33;24.03;53.71
67942;SHT31;54731;42.600;23.476;2023-06-04T14:42:59;23.95;54.18
67942;SHT31;54731;42.600;23.476;2023-06-04T14:45:24;23.46;54.93
67942;SHT31;54731;42.600;23.476;2023-06-04T14:47:49;23.37;55.41
67942;SHT31;54731;42.600;23.476;2023-06-04T14:50:14;23.16;56.21
67942;SHT31;54731;42.600;23.476;2023-06-04T14:52:40;22.98;56.01
67942;SHT31;54731;42.600;23.476;2023-06-04T14:55:05;22.83;56.88
67942;SHT31;54731;42.600;23.476;2023-06-04T14:57:31;22.63;57.81
67942;SHT31;54731;42.600;23.476;2023-06-04T14:59:56;22.44;57.91
67942;SHT31;54731;42.600;23.476;2023-06-04T15:02:21;22.33;58.51
67942;SHT31;54731;42.600;23.476;2023-06-04T15:04:47;22.33;58.60
67942;SHT31;54731;42.600;23.476;2023-06-04T15:07:12;22.23;58.96
67942;SHT31;54731;42.600;23.476;2023-06-04T15:09:37;22.24;58.82
67942;SHT31;54731;42.600;23.476;2023-06-04T15:12:03;22.12;58.83
67942;SHT31;54731;42.600;23.476;2023-06-04T15:14:28;22.12;58.65
67942;SHT31;54731;42.600;23.476;2023-06-04T15:16:54;22.08;58.63